Time;durP1;ratioP1;P1;durP2;ratioP2;P2;SDS_P1;SDS_P2;PMS_P1;PMS_P2;Temp;Humidity;BMP_temperature;BMP_pressure;BME280_temperature;BME280_humidity;BME280_pressure;Samples;Min_cycle;Max_cycle;Signal;HPM_P1;HPM_P2
2021/06/18 00:02:23;;;;;;;4.22;1.13;;;14.30;86.20;;;;;;5006741;28;20034;-91
2021/06/18 00:04:49;;;;;;;1.98;1.10;;;14.30;86.50;;;;;;4987449;28;20033;-92
2021/06/18 00:07:15;;;;;;;2.85;1.00;;;14.30;86.80;;;;;;4986249;28;20030;-91
2021/06/18 00:09:40;;;;;;;3.85;0.90;;;14.20;87.00;;;;;;4989542;28;20053;-91
2021/06/18 00:12:07;;;;;;;2.67;1.17;;;14.20;87.20;;;;;;4988110;28;20502;-89
2021/06/18 00:14:33;;;;;;;3.50;1.38;;;14.20;87.50;;;;;;4987436;28;20022;-89
2021/06/18 00:17:01;;;;;;;5.88;1.30;;;14.20;87.70;;;;;;5003453;28;20084;-91
2021/06/18 00:19:26;;;;;;;3.33;1.00;;;14.20;88.00;;;;;;5005390;28;20069;-91
2021/06/18 00:21:52;;;;;;;2.17;1.05;;;14.10;89.00;;;;;;4988501;28;20496;-91
2021/06/18 00:24:17;;;;;;;5.80;1.30;;;14.10;88.70;;;;;;4986651;28;20031;-90
2021/06/18 00:26:43;;;;;;;5.60;1.50;;;14.10;89.00;;;;;;4988067;28;20034;-89
2021/06/18 00:29:09;;;;;;;4.40;0.90;;;14.10;89.20;;;;;;4987516;28;20022;-89
2021/06/18 00:31:34;;;;;;;4.05;1.30;;;14.10;89.50;;;;;;4985892;28;20025;-91
2021/06/18 00:34:00;;;;;;;6.00;1.15;;;14.00;89.50;;;;;;4986088;28;20038;-91
2021/06/18 00:36:26;;;;;;;3.60;1.27;;;14.00;89.80;;;;;;4986860;28;20018;-89
2021/06/18 00:38:52;;;;;;;2.78;1.08;;;14.00;89.90;;;;;;4985178;28;20029;-91
2021/06/18 00:41:17;;;;;;;3.92;1.58;;;13.90;90.00;;;;;;5001305;28;20026;-89
2021/06/18 00:43:43;;;;;;;3.92;1.00;;;13.90;90.00;;;;;;4987957;28;20144;-89
2021/06/18 00:46:10;;;;;;;3.63;1.30;;;13.90;90.10;;;;;;4988167;28;20030;-90
2021/06/18 00:48:36;;;;;;;4.85;1.00;;;13.80;90.10;;;;;;4986177;28;20113;-91
2021/06/18 00:51:04;;;;;;;7.40;1.30;;;13.80;90.10;;;;;;4987632;28;20479;-91
2021/06/18 00:53:30;;;;;;;4.32;1.25;;;13.80;90.10;;;;;;5004399;28;20555;-91
2021/06/18 00:55:59;;;;;;;6.30;1.25;;;13.80;90.20;;;;;;4989049;28;20117;-91
2021/06/18 00:58:28;;;;;;;3.58;1.13;;;13.80;90.40;;;;;;4986866;28;20546;-91
2021/06/18 01:00:54;;;;;;;2.45;0.98;;;13.80;90.40;;;;;;4986523;28;20030;-91
2021/06/18 01:03:19;;;;;;;3.58;1.27;;;13.70;90.50;;;;;;4987449;28;20511;-92
2021/06/18 01:05:45;;;;;;;3.28;1.20;;;13.70;90.50;;;;;;4986412;28;20506;-92
2021/06/18 01:08:19;;;;;;;6.00;1.27;;;13.70;90.60;;;;;;4986083;28;20567;-91
2021/06/18 01:11:05;;;;;;;4.55;1.63;;;13.70;90.70;;;;;;4983652;28;20040;-91
2021/06/18 01:14:04;;;;;;;4.57;1.50;;;13.70;90.90;;;;;;5003778;28;20027;-92
2021/06/18 01:16:33;;;;;;;2.58;1.25;;;13.70;91.10;;;;;;5003987;28;20096;-91
2021/06/18 01:19:24;;;;;;;5.88;1.45;;;13.70;91.30;;;;;;5003110;28;20120;-92
2021/06/18 01:22:10;;;;;;;8.10;2.38;;;13.70;91.50;;;;;;4991853;28;20042;-91
2021/06/18 01:24:50;;;;;;;2.33;1.00;;;13.70;91.50;;;;;;4986996;28;20022;-91
2021/06/18 01:27:19;;;;;;;;;;;13.60;91.60;;;;;;5005718;28;20040;-91
2021/06/18 01:29:49;;;;;;;3.55;1.20;;;13.60;91.70;;;;;;5001758;28;19925;-91
2021/06/18 01:32:26;;;;;;;3.65;1.20;;;13.60;91.70;;;;;;4985324;28;20027;-90
2021/06/18 01:34:53;;;;;;;3.15;1.27;;;13.50;91.80;;;;;;4985252;28;20038;-92
2021/06/18 01:37:24;;;;;;;3.33;1.38;;;13.40;91.90;;;;;;4987522;28;20075;-90
2021/06/18 01:39:50;;;;;;;2.25;1.10;;;13.40;92.40;;;;;;4992430;28;20026;-91
2021/06/18 01:42:17;;;;;;;3.63;1.40;;;13.30;92.30;;;;;;5013826;28;20041;-91
2021/06/18 01:44:44;;;;;;;4.40;1.25;;;13.30;92.40;;;;;;5013698;28;20033;-90
2021/06/18 01:47:13;;;;;;;3.50;1.38;;;13.30;92.60;;;;;;4995716;28;20099;-92
2021/06/18 01:49:41;;;;;;;6.38;1.73;;;13.30;92.90;;;;;;4995501;28;20119;-92
2021/06/18 01:52:09;;;;;;;5.72;1.27;;;13.20;93.00;;;;;;4995758;28;20033;-92
2021/06/18 01:54:37;;;;;;;4.25;1.23;;;13.20;93.20;;;;;;4995593;28;20040;-92
2021/06/18 01:57:05;;;;;;;4.05;1.50;;;13.20;93.40;;;;;;4995695;28;20044;-89
2021/06/18 01:59:35;;;;;;;3.28;1.50;;;13.20;93.60;;;;;;4995268;28;20030;-92
2021/06/18 02:02:03;;;;;;;7.22;1.45;;;13.10;93.70;;;;;;4995553;28;20490;-92
2021/06/18 02:04:31;;;;;;;5.32;1.63;;;13.10;93.90;;;;;;4995379;28;20044;-91
2021/06/18 02:06:57;;;;;;;7.20;1.48;;;13.10;94.10;;;;;;4995126;28;20030;-91
2021/06/18 02:09:25;;;;;;;4.60;1.58;;;13.10;94.20;;;;;;4995131;28;20057;-91
2021/06/18 02:11:51;;;;;;;3.95;1.38;;;13.10;94.30;;;;;;4995280;28;20121;-91
2021/06/18 02:14:19;;;;;;;3.75;1.10;;;13.10;94.40;;;;;;4995030;28;20049;-90
2021/06/18 02:16:57;;;;;;;2.67;1.20;;;13.10;94.50;;;;;;4994844;28;20034;-91
2021/06/18 02:19:24;;;;;;;4.63;1.15;;;13.10;94.60;;;;;;4991406;28;20048;-88
2021/06/18 02:21:53;;;;;;;2.97;1.25;;;13.10;94.60;;;;;;4993015;28;20046;-92
2021/06/18 02:24:21;;;;;;;3.67;1.17;;;13.10;94.70;;;;;;4991619;28;20030;-92
2021/06/18 02:26:48;;;;;;;5.15;1.40;;;13.10;94.80;;;;;;4992786;28;20122;-91
2021/06/18 02:31:40;;;;;;;4.22;1.42;;;13.00;95.00;;;;;;4993275;28;20132;-92
2021/06/18 02:34:07;;;;;;;5.95;1.60;;;13.00;95.10;;;;;;4978848;28;20033;-92
2021/06/18 02:36:33;;;;;;;1.92;1.20;;;13.00;95.30;;;;;;4996555;28;20111;-92
2021/06/18 02:38:59;;;;;;;4.03;2.13;;;13.00;95.40;;;;;;4995840;28;20075;-92
2021/06/18 02:41:25;;;;;;;7.55;1.50;;;13.00;95.50;;;;;;4995438;28;20027;-92
2021/06/18 02:43:51;;;;;;;6.45;1.40;;;13.00;95.60;;;;;;4995641;28;20033;-93
2021/06/18 02:46:23;;;;;;;4.72;1.25;;;12.90;95.70;;;;;;4995864;28;20042;-95
2021/06/18 02:48:52;;;;;;;4.13;1.30;;;12.90;95.90;;;;;;5012559;28;20026;-94
2021/06/18 02:51:43;;;;;;;4.70;1.50;;;12.90;96.10;;;;;;4995507;28;20030;-93
2021/06/18 02:54:25;;;;;;;3.78;1.60;;;12.90;96.30;;;;;;5012067;28;20038;-93
2021/06/18 02:56:58;;;;;;;3.65;1.20;;;12.90;96.40;;;;;;4994752;28;20026;-93
2021/06/18 02:59:27;;;;;;;2.47;1.15;;;12.90;96.50;;;;;;4995485;28;20037;-92
2021/06/18 03:01:57;;;;;;;4.53;1.30;;;12.90;96.60;;;;;;4995540;28;20041;-93
2021/06/18 03:04:26;;;;;;;4.90;1.40;;;13.00;96.70;;;;;;4995979;28;20033;-93
2021/06/18 03:06:56;;;;;;;3.75;1.45;;;13.00;96.80;;;;;;4999849;28;20030;-93
2021/06/18 03:09:31;;;;;;;2.50;1.60;;;12.90;96.80;;;;;;5017021;28;20049;-94
2021/06/18 03:11:58;;;;;;;6.28;1.90;;;13.00;97.00;;;;;;5000046;28;20038;-93
2021/06/18 03:14:29;;;;;;;4.90;1.60;;;13.00;97.10;;;;;;5007731;28;20018;-92
2021/06/18 03:16:59;;;;;;;3.83;1.48;;;13.00;97.10;;;;;;5016840;28;20017;-92
2021/06/18 03:19:30;;;;;;;2.92;1.20;;;13.00;97.20;;;;;;5012069;28;20053;-94
2021/06/18 03:21:59;;;;;;;3.30;1.20;;;13.00;97.40;;;;;;5000724;28;20072;-93
2021/06/18 03:24:29;;;;;;;2.60;1.30;;;13.10;97.50;;;;;;4999390;28;20121;-93
2021/06/18 03:26:55;;;;;;;4.75;1.40;;;13.10;97.60;;;;;;4999109;28;20033;-93
2021/06/18 03:29:21;;;;;;;2.63;1.30;;;13.10;97.60;;;;;;4999381;28;20022;-94
2021/06/18 03:31:48;;;;;;;6.20;1.40;;;13.10;97.60;;;;;;4991171;28;20065;-92
2021/06/18 03:34:14;;;;;;;10.35;2.97;;;13.20;97.70;;;;;;4979869;28;20674;-93
2021/06/18 03:36:43;;;;;;;4.88;1.60;;;13.20;97.70;;;;;;4979406;28;20023;-93
2021/06/18 03:39:12;;;;;;;1.77;1.05;;;13.20;97.90;;;;;;4979626;28;20027;-93
2021/06/18 03:41:38;;;;;;;3.65;1.35;;;13.10;97.90;;;;;;4979766;28;20050;-94
2021/06/18 03:44:05;;;;;;;7.35;1.67;;;13.20;98.10;;;;;;4979412;28;20125;-93
2021/06/18 03:46:33;;;;;;;6.38;1.40;;;13.10;98.20;;;;;;4979854;28;20121;-93
2021/06/18 03:49:00;;;;;;;5.18;1.50;;;13.10;98.30;;;;;;4980211;28;20027;-94
2021/06/18 03:51:26;;;;;;;7.88;1.42;;;13.10;98.50;;;;;;4987768;28;20026;-92
2021/06/18 03:53:56;;;;;;;3.80;1.45;;;13.10;98.60;;;;;;4987813;28;20076;-92
2021/06/18 03:56:22;;;;;;;3.90;1.45;;;13.20;98.70;;;;;;4987871;28;20023;-94
2021/06/18 03:58:48;;;;;;;4.93;1.23;;;13.20;98.90;;;;;;4985539;28;20117;-96
2021/06/18 04:01:15;;;;;;;4.55;1.38;;;13.20;99.00;;;;;;4980857;28;20092;-94
2021/06/18 04:03:45;;;;;;;4.60;1.52;;;13.30;99.10;;;;;;4979676;28;20133;-93
2021/06/18 04:06:15;;;;;;;6.22;1.60;;;13.20;99.10;;;;;;4979662;28;20428;-95
2021/06/18 04:08:44;;;;;;;5.70;1.27;;;13.30;99.20;;;;;;4979810;28;20038;-96
2021/06/18 04:11:10;;;;;;;4.10;1.27;;;13.30;99.20;;;;;;4979081;28;20022;-94
2021/06/18 04:13:37;;;;;;;7.07;1.40;;;13.30;99.10;;;;;;4979719;28;20547;-92
2021/06/18 04:16:11;;;;;;;2.92;1.10;;;13.40;99.10;;;;;;4978987;28;20050;-93
2021/06/18 04:18:41;;;;;;;3.35;1.40;;;13.40;98.90;;;;;;4978991;28;20027;-93
2021/06/18 04:21:14;;;;;;;4.22;1.05;;;13.40;98.90;;;;;;4979336;28;20023;-93
2021/06/18 04:23:40;;;;;;;3.65;1.13;;;13.40;98.80;;;;;;4978764;28;20050;-93
2021/06/18 04:26:06;;;;;;;3.30;1.02;;;13.40;98.60;;;;;;4978434;28;20106;-93
2021/06/18 04:28:35;;;;;;;4.03;1.02;;;13.50;98.40;;;;;;4978670;28;20026;-95
2021/06/18 04:31:01;;;;;;;2.20;0.98;;;13.50;98.10;;;;;;4979124;28;20061;-94
2021/06/18 04:33:27;;;;;;;2.88;0.90;;;13.50;97.80;;;;;;4979184;28;20022;-94
2021/06/18 04:35:52;;;;;;;4.25;1.05;;;13.60;97.60;;;;;;4978518;28;20065;-93
2021/06/18 04:38:18;;;;;;;4.03;1.15;;;13.60;97.40;;;;;;4979616;28;20030;-93
2021/06/18 04:40:46;;;;;;;5.63;1.15;;;13.60;97.20;;;;;;4979103;28;20030;-91
2021/06/18 04:43:13;;;;;;;3.28;1.25;;;13.60;97.10;;;;;;4979309;28;20058;-93
2021/06/18 04:45:39;;;;;;;3.33;1.30;;;13.70;96.90;;;;;;4978462;28;20084;-92
2021/06/18 04:48:05;;;;;;;3.47;1.10;;;13.70;96.70;;;;;;4978598;28;20027;-93
2021/06/18 04:50:31;;;;;;;3.28;1.40;;;13.70;96.60;;;;;;4979527;28;20022;-93
2021/06/18 04:52:58;;;;;;;3.67;1.10;;;13.70;96.50;;;;;;4980613;28;20117;-93
2021/06/18 04:55:27;;;;;;;4.57;1.20;;;13.70;96.30;;;;;;4990387;28;20049;-93
2021/06/18 04:57:53;;;;;;;6.63;1.10;;;13.70;96.20;;;;;;4995764;28;20061;-93
2021/06/18 05:00:23;;;;;;;4.18;1.08;;;13.70;96.00;;;;;;4997765;28;20049;-93
2021/06/18 05:02:49;;;;;;;2.87;1.10;;;13.80;95.80;;;;;;4997667;28;20030;-95
2021/06/18 05:05:15;;;;;;;6.05;1.58;;;13.70;95.70;;;;;;4986944;28;20030;-94
2021/06/18 05:07:40;;;;;;;3.03;1.23;;;13.70;95.70;;;;;;4987332;28;20404;-93
2021/06/18 05:10:07;;;;;;;3.15;1.20;;;13.70;95.60;;;;;;4983963;28;20054;-93
2021/06/18 05:12:33;;;;;;;7.25;1.20;;;13.70;95.60;;;;;;4979710;28;20250;-93
2021/06/18 05:14:59;;;;;;;7.25;1.95;;;13.80;95.60;;;;;;4978749;28;20149;-94
2021/06/18 05:17:24;;;;;;;3.05;1.10;;;13.70;95.50;;;;;;4978891;28;20062;-93
2021/06/18 05:19:50;;;;;;;5.85;1.40;;;13.80;95.60;;;;;;4981081;28;20117;-93
2021/06/18 05:22:18;;;;;;;5.43;1.40;;;13.80;95.50;;;;;;4986242;28;20043;-95
2021/06/18 05:24:44;;;;;;;3.20;1.50;;;13.80;95.50;;;;;;4996330;28;20484;-95
2021/06/18 05:27:11;;;;;;;5.72;1.33;;;13.80;95.50;;;;;;4988180;28;20121;-94
2021/06/18 05:29:37;;;;;;;3.85;1.30;;;13.80;95.50;;;;;;4981002;28;20031;-93
2021/06/18 05:32:07;;;;;;;5.50;1.60;;;13.80;95.50;;;;;;4978270;28;20065;-93
2021/06/18 05:34:33;;;;;;;4.67;1.33;;;13.80;95.50;;;;;;4977478;28;20419;-95
2021/06/18 05:36:59;;;;;;;4.68;1.10;;;13.80;95.50;;;;;;4977408;28;20034;-94
2021/06/18 05:39:27;;;;;;;6.75;1.70;;;13.80;95.60;;;;;;4977519;28;20026;-94
2021/06/18 05:41:53;;;;;;;5.57;1.30;;;13.80;95.60;;;;;;4976801;28;20482;-93
2021/06/18 05:44:18;;;;;;;2.92;1.10;;;13.90;95.60;;;;;;4977049;28;20030;-93
2021/06/18 05:46:44;;;;;;;11.73;3.33;;;13.90;95.50;;;;;;4977415;28;20033;-94
2021/06/18 05:49:10;;;;;;;8.57;1.58;;;13.90;95.40;;;;;;4976154;28;20034;-93
2021/06/18 05:51:39;;;;;;;3.97;1.35;;;13.90;95.30;;;;;;4977404;28;20026;-93
2021/06/18 05:54:05;;;;;;;6.15;1.20;;;13.90;95.30;;;;;;4977269;28;20027;-93
2021/06/18 05:56:31;;;;;;;5.10;1.23;;;13.90;95.30;;;;;;4970831;28;20105;-93
2021/06/18 05:58:57;;;;;;;9.07;1.70;;;13.90;95.20;;;;;;4967279;28;20022;-94
2021/06/18 06:01:24;;;;;;;4.63;1.48;;;13.90;95.10;;;;;;4977599;28;20023;-94
2021/06/18 06:03:53;;;;;;;7.95;2.47;;;13.90;95.00;;;;;;4975879;28;20026;-95
2021/06/18 06:06:20;;;;;;;4.72;1.25;;;13.90;95.00;;;;;;4972414;28;20015;-94
2021/06/18 06:08:46;;;;;;;5.65;1.33;;;13.90;94.90;;;;;;4978112;28;20034;-93
2021/06/18 06:11:12;;;;;;;6.25;2.13;;;13.90;94.90;;;;;;4981128;28;20080;-94
2021/06/18 06:13:38;;;;;;;3.88;1.73;;;13.90;95.00;;;;;;4972098;28;20098;-95
2021/06/18 06:16:04;;;;;;;5.57;1.40;;;14.00;95.00;;;;;;4974583;28;20022;-95
2021/06/18 06:18:30;;;;;;;5.22;1.30;;;14.00;95.00;;;;;;4973834;28;20027;-93
2021/06/18 06:20:59;;;;;;;7.82;1.63;;;14.00;94.90;;;;;;4968113;28;20046;-95
2021/06/18 06:23:27;;;;;;;4.50;1.48;;;14.00;94.90;;;;;;4970231;28;20034;-95
2021/06/18 06:25:53;;;;;;;5.18;1.50;;;14.00;94.90;;;;;;4993641;28;20049;-94
2021/06/18 06:28:19;;;;;;;5.15;1.45;;;14.00;94.80;;;;;;4968466;28;20490;-95
2021/06/18 06:30:45;;;;;;;4.70;1.70;;;14.00;94.80;;;;;;4975764;28;20038;-95
2021/06/18 06:33:10;;;;;;;5.53;1.60;;;14.10;94.90;;;;;;4971158;28;20023;-94
2021/06/18 06:35:39;;;;;;;6.55;1.35;;;14.10;94.90;;;;;;4966557;28;20491;-94
2021/06/18 06:38:08;;;;;;;4.82;1.67;;;14.10;94.90;;;;;;4963531;28;20034;-92
2021/06/18 06:40:34;;;;;;;3.45;1.30;;;14.10;94.90;;;;;;4975714;28;20031;-96
2021/06/18 06:43:00;;;;;;;6.55;2.22;;;14.10;94.90;;;;;;4975229;28;20484;-94
2021/06/18 06:45:29;;;;;;;8.48;3.17;;;14.10;94.90;;;;;;4979885;28;20022;-94
2021/06/18 06:47:57;;;;;;;5.15;1.75;;;14.10;94.90;;;;;;4976717;28;20030;-94
2021/06/18 06:52:52;;;;;;;5.55;1.80;;;14.20;94.90;;;;;;4990475;28;20141;-92
2021/06/18 06:57:53;;;;;;;3.28;1.70;;;14.20;94.90;;;;;;5992665;23;20017;-92
2021/06/18 07:00:24;;;;;;;2.67;1.50;;;14.30;95.00;;;;;;5016849;28;20391;-92
2021/06/18 07:02:52;;;;;;;4.75;1.48;;;14.30;94.90;;;;;;5009212;28;20049;-94
2021/06/18 07:05:20;;;;;;;5.95;1.50;;;14.30;94.90;;;;;;5005462;28;20029;-94
2021/06/18 07:07:46;;;;;;;11.77;2.10;;;14.30;94.90;;;;;;5008869;28;20022;-94
2021/06/18 07:10:12;;;;;;;7.78;1.88;;;14.40;95.00;;;;;;5008775;28;20022;-94
2021/06/18 07:12:38;;;;;;;8.43;1.98;;;14.40;94.90;;;;;;5010702;28;20033;-94
2021/06/18 07:15:05;;;;;;;5.55;1.88;;;14.40;94.80;;;;;;5012091;28;20046;-92
2021/06/18 07:17:33;;;;;;;7.05;1.70;;;14.40;94.90;;;;;;5013947;28;20025;-93
2021/06/18 07:20:05;;;;;;;4.18;1.63;;;14.50;95.00;;;;;;5010252;28;20018;-94
2021/06/18 07:22:30;;;;;;;10.80;1.80;;;14.60;95.00;;;;;;5012176;28;20034;-93
2021/06/18 07:24:58;;;;;;;3.13;1.50;;;14.60;94.90;;;;;;5002888;28;20116;-93
2021/06/18 07:27:24;;;;;;;3.58;1.67;;;14.60;94.90;;;;;;5005731;28;20022;-94
2021/06/18 07:29:54;;;;;;;6.95;2.15;;;14.70;95.10;;;;;;5006436;28;20024;-95
2021/06/18 07:32:23;;;;;;;7.18;2.25;;;14.70;95.20;;;;;;5006274;28;20026;-94
2021/06/18 07:34:49;;;;;;;9.45;2.40;;;14.70;95.20;;;;;;5002868;28;20068;-94
2021/06/18 07:37:18;;;;;;;6.53;2.00;;;14.80;95.20;;;;;;5000795;28;20116;-94
2021/06/18 07:39:43;;;;;;;5.80;2.30;;;14.80;95.20;;;;;;5000501;28;20116;-94
2021/06/18 07:42:12;;;;;;;6.50;2.35;;;14.80;95.20;;;;;;5017962;28;20168;-95
2021/06/18 07:44:41;;;;;;;9.77;2.47;;;14.90;95.30;;;;;;5001486;28;20038;-94
2021/06/18 07:47:07;;;;;;;6.40;2.17;;;14.90;95.30;;;;;;5001275;28;20124;-96
2021/06/18 07:49:36;;;;;;;8.95;2.00;;;15.00;95.30;;;;;;5001534;28;20026;-94
2021/06/18 07:52:05;;;;;;;9.77;2.10;;;15.00;95.30;;;;;;5006887;28;20037;-93
2021/06/18 07:54:34;;;;;;;5.07;1.80;;;15.10;95.30;;;;;;5002164;28;20494;-93
2021/06/18 07:57:00;;;;;;;5.43;1.90;;;15.10;95.20;;;;;;5010264;28;20041;-92
2021/06/18 07:59:25;;;;;;;5.07;2.30;;;15.30;95.10;;;;;;5010682;28;20042;-93
2021/06/18 08:01:51;;;;;;;7.85;1.92;;;15.40;95.10;;;;;;5006168;28;20093;-94
2021/06/18 08:04:17;;;;;;;5.15;1.92;;;15.40;95.00;;;;;;5008325;28;20029;-93
2021/06/18 08:09:57;;;;;;;7.60;2.40;;;15.50;94.90;;;;;;5023672;23;20088;-94
2021/06/18 08:12:23;;;;;;;7.28;1.90;;;15.50;94.90;;;;;;5001953;28;20022;-92
2021/06/18 08:14:49;;;;;;;6.60;2.28;;;15.60;94.90;;;;;;4993765;28;20126;-94
2021/06/18 08:17:15;;;;;;;4.72;2.08;;;15.60;94.90;;;;;;4992723;28;20025;-93
2021/06/18 08:19:43;;;;;;;6.90;2.40;;;15.70;94.90;;;;;;5000237;28;20068;-93
2021/06/18 08:22:09;;;;;;;9.38;2.13;;;15.70;94.80;;;;;;5005902;28;20025;-92
2021/06/18 08:24:36;;;;;;;5.90;2.53;;;15.80;94.80;;;;;;4995523;28;20053;-94
2021/06/18 08:27:04;;;;;;;8.07;2.35;;;15.90;94.80;;;;;;4992577;28;20014;-93
2021/06/18 08:29:30;;;;;;;6.40;2.33;;;16.00;94.70;;;;;;4994030;28;20034;-94
2021/06/18 08:31:56;;;;;;;7.90;2.50;;;16.00;94.70;;;;;;4985746;28;20022;-92
2021/06/18 08:34:27;;;;;;;7.10;2.50;;;16.10;94.60;;;;;;4991175;28;20022;-92
2021/06/18 08:36:56;;;;;;;5.88;2.22;;;16.10;94.60;;;;;;4990246;28;20064;-93
2021/06/18 08:39:24;;;;;;;6.25;2.13;;;16.20;94.70;;;;;;4989730;28;20054;-90
2021/06/18 08:41:50;;;;;;;8.50;2.92;;;16.20;94.70;;;;;;4986432;28;20030;-93
2021/06/18 08:44:17;;;;;;;11.70;3.22;;;16.30;94.70;;;;;;4987596;28;20037;-92
2021/06/18 08:46:43;;;;;;;9.60;3.22;;;16.40;94.60;;;;;;4989191;28;20046;-94
2021/06/18 08:49:09;;;;;;;9.05;3.17;;;16.50;94.60;;;;;;4988925;28;20448;-93
2021/06/18 08:51:38;;;;;;;10.52;2.63;;;16.50;94.50;;;;;;4978632;28;20058;-92
2021/06/18 08:54:06;;;;;;;6.00;3.28;;;16.60;94.50;;;;;;4988471;28;20056;-93
2021/06/18 08:56:33;;;;;;;4.82;2.63;;;16.70;94.40;;;;;;4987110;28;20022;-94
2021/06/18 08:58:58;;;;;;;8.98;4.03;;;16.80;94.20;;;;;;4990449;28;20034;-94
2021/06/18 09:01:24;;;;;;;9.73;3.25;;;16.90;94.20;;;;;;4989389;28;20263;-93
2021/06/18 09:03:51;;;;;;;10.32;3.25;;;17.00;94.20;;;;;;4986975;28;20037;-92
2021/06/18 09:06:31;;;;;;;15.80;3.40;;;17.10;94.20;;;;;;4986217;28;20383;-92
2021/06/18 09:09:25;;;;;;;11.73;3.70;;;17.20;94.00;;;;;;5003118;28;20047;-92
2021/06/18 09:11:59;;;;;;;10.50;3.65;;;17.30;94.10;;;;;;4978844;28;20277;-92
2021/06/18 09:14:33;;;;;;;9.70;3.90;;;17.40;93.80;;;;;;4990685;28;20110;-92
2021/06/18 09:17:11;;;;;;;10.57;4.25;;;17.50;93.70;;;;;;4997731;28;20018;-93
2021/06/18 09:19:43;;;;;;;9.57;4.43;;;17.50;93.60;;;;;;4997639;28;20545;-94
2021/06/18 09:22:35;;;;;;;6.65;3.70;;;17.60;93.50;;;;;;4998127;28;20137;-93
2021/06/18 09:25:01;;;;;;;10.88;4.05;;;17.70;93.30;;;;;;4979870;28;20019;-93
2021/06/18 09:27:32;;;;;;;8.35;3.90;;;17.80;92.90;;;;;;4978837;28;20035;-93
2021/06/18 09:30:17;;;;;;;10.90;3.60;;;17.80;92.70;;;;;;4993366;28;20022;-92
2021/06/18 09:33:17;;;;;;;7.50;3.05;;;17.70;92.50;;;;;;4997097;28;20040;-94
2021/06/18 09:36:06;;;;;;;8.55;3.20;;;17.80;92.70;;;;;;4997658;28;20021;-94
2021/06/18 09:38:47;;;;;;;11.75;3.63;;;17.80;92.60;;;;;;4989205;28;20076;-94
2021/06/18 09:41:28;;;;;;;9.98;3.55;;;17.90;92.40;;;;;;4980279;28;20061;-92
2021/06/18 09:43:57;;;;;;;9.77;3.20;;;17.90;92.10;;;;;;4977594;28;20038;-93
2021/06/18 09:46:43;;;;;;;5.97;3.30;;;18.00;92.00;;;;;;4976857;28;20057;-93
2021/06/18 09:49:16;;;;;;;6.75;3.20;;;18.00;92.10;;;;;;4977778;28;20098;-94
2021/06/18 09:52:09;;;;;;;8.48;2.65;;;18.10;92.20;;;;;;4978008;28;20030;-94
2021/06/18 09:54:42;;;;;;;8.90;3.47;;;18.20;92.10;;;;;;4977652;28;20038;-94
2021/06/18 09:57:13;;;;;;;10.48;3.58;;;18.30;92.00;;;;;;4990261;28;20045;-95
2021/06/18 09:59:59;;;;;;;9.73;3.10;;;18.30;92.00;;;;;;4988162;28;20030;-92
2021/06/18 10:02:52;;;;;;;9.35;2.67;;;18.40;92.00;;;;;;4977611;28;20037;-93
2021/06/18 10:05:18;;;;;;;5.15;3.30;;;18.50;91.90;;;;;;4979337;28;20031;-93
2021/06/18 10:07:46;;;;;;;9.95;3.78;;;18.60;91.60;;;;;;4979129;28;20109;-94
2021/06/18 10:10:19;;;;;;;6.82;2.75;;;18.70;91.50;;;;;;4978446;28;20054;-94
2021/06/18 10:12:45;;;;;;;12.18;3.15;;;18.70;91.20;;;;;;4978300;28;20042;-93
2021/06/18 10:15:15;;;;;;;7.82;2.80;;;18.70;91.00;;;;;;4980830;28;20022;-94
2021/06/18 10:17:43;;;;;;;11.43;2.70;;;18.70;90.70;;;;;;4978877;28;20117;-94
2021/06/18 10:20:15;;;;;;;5.63;2.53;;;18.70;90.30;;;;;;4979008;28;20328;-93
2021/06/18 10:23:14;;;;;;;7.30;2.47;;;18.70;89.50;;;;;;4992647;28;20045;-93
2021/06/18 10:25:54;;;;;;;11.23;2.50;;;18.60;89.20;;;;;;4993011;28;20034;-92
2021/06/18 10:28:24;;;;;;;5.32;2.25;;;18.70;89.00;;;;;;4997890;28;20033;-92
2021/06/18 10:30:52;;;;;;;10.15;3.63;;;18.60;88.50;;;;;;5000005;28;20046;-93
2021/06/18 10:33:27;;;;;;;7.97;2.30;;;18.60;87.90;;;;;;4999544;28;20034;-93
2021/06/18 10:36:09;;;;;;;5.05;2.58;;;18.50;88.00;;;;;;4992995;28;20046;-93
2021/06/18 10:38:44;;;;;;;6.30;2.45;;;18.50;88.20;;;;;;4959144;28;20126;-93
2021/06/18 10:41:13;;;;;;;4.53;2.28;;;18.30;88.10;;;;;;4971036;28;20014;-93
2021/06/18 10:43:49;;;;;;;8.43;2.83;;;18.30;88.40;;;;;;4998547;28;20042;-93
2021/06/18 10:46:32;;;;;;;6.03;2.70;;;18.20;88.60;;;;;;4987455;28;20033;-92
2021/06/18 10:49:13;;;;;;;8.10;2.92;;;18.10;88.80;;;;;;4990607;28;20031;-92
2021/06/18 10:51:47;;;;;;;7.05;3.17;;;18.10;89.30;;;;;;4992508;28;20022;-93
2021/06/18 10:54:30;;;;;;;7.90;3.28;;;18.00;89.80;;;;;;5003924;28;20098;-94
2021/06/18 10:57:01;;;;;;;8.88;3.25;;;18.00;90.10;;;;;;5002551;28;20038;-92
2021/06/18 10:59:44;;;;;;;8.90;3.00;;;17.90;90.40;;;;;;5000278;28;20054;-93
2021/06/18 11:02:30;;;;;;;8.57;3.05;;;17.80;90.60;;;;;;4998266;28;20049;-93
2021/06/18 11:04:57;;;;;;;6.55;2.47;;;17.70;90.80;;;;;;4998022;28;20030;-93
2021/06/18 11:07:34;;;;;;;5.90;2.65;;;17.60;91.00;;;;;;4996648;28;20057;-93
2021/06/18 11:10:01;;;;;;;5.82;3.00;;;17.60;91.20;;;;;;4985988;28;20043;-93
2021/06/18 11:12:27;;;;;;;10.88;3.22;;;17.50;91.40;;;;;;4974493;28;20035;-93
2021/06/18 11:14:53;;;;;;;9.25;2.72;;;17.50;91.60;;;;;;4975422;28;20376;-93
2021/06/18 11:17:37;;;;;;;11.00;3.10;;;17.40;91.70;;;;;;4978145;28;20045;-94
2021/06/18 11:20:25;;;;;;;7.60;3.00;;;17.40;92.00;;;;;;4977072;28;20035;-93
2021/06/18 11:23:04;;;;;;;11.25;3.95;;;17.40;92.10;;;;;;4978044;28;20170;-92
2021/06/18 11:25:36;;;;;;;14.40;3.28;;;17.30;92.30;;;;;;4977262;28;20033;-92
2021/06/18 11:28:21;;;;;;;12.27;3.20;;;17.30;92.50;;;;;;4979799;28;20488;-92
2021/06/18 11:31:00;;;;;;;8.75;3.58;;;17.30;92.70;;;;;;4988435;28;20022;-93
2021/06/18 11:33:47;;;;;;;20.77;3.75;;;17.20;92.80;;;;;;4996802;28;20042;-92
2021/06/18 11:36:17;;;;;;;7.55;3.60;;;17.10;93.00;;;;;;4998907;28;20034;-92
2021/06/18 11:38:44;;;;;;;9.82;3.67;;;17.10;93.30;;;;;;4999302;28;20034;-91
2021/06/18 11:41:10;;;;;;;6.15;3.00;;;17.00;93.40;;;;;;4993912;28;20484;-92
2021/06/18 11:43:38;;;;;;;11.32;3.35;;;17.00;93.60;;;;;;4979499;28;20108;-91
2021/06/18 11:46:05;;;;;;;11.20;3.65;;;17.00;93.80;;;;;;4979584;28;20060;-94
2021/06/18 11:48:33;;;;;;;10.00;3.05;;;17.00;94.00;;;;;;4983001;28;20060;-92
2021/06/18 11:51:00;;;;;;;7.75;2.72;;;16.90;94.10;;;;;;4975726;28;20019;-94
2021/06/18 11:53:36;;;;;;;8.38;2.72;;;16.80;94.20;;;;;;4986871;28;20421;-92
2021/06/18 11:56:07;;;;;;;7.10;2.60;;;16.80;94.50;;;;;;4969377;28;20026;-92
2021/06/18 11:58:34;;;;;;;13.88;2.55;;;16.70;94.40;;;;;;4987078;28;20026;-92
2021/06/18 12:01:17;;;;;;;8.73;2.85;;;16.70;94.60;;;;;;4976267;28;20069;-92
2021/06/18 12:03:45;;;;;;;10.02;2.63;;;16.70;94.70;;;;;;4979769;28;20045;-93
2021/06/18 12:06:24;;;;;;;9.95;3.45;;;16.60;94.80;;;;;;4993778;28;20065;-92
2021/06/18 12:08:59;;;;;;;8.15;2.88;;;16.60;95.00;;;;;;4977320;28;20070;-92
2021/06/18 12:11:27;;;;;;;11.20;2.92;;;16.60;95.20;;;;;;4973821;28;20039;-91
2021/06/18 12:13:55;;;;;;;11.40;2.80;;;16.60;95.30;;;;;;4968528;28;20058;-93
2021/06/18 12:16:25;;;;;;;10.20;3.00;;;16.60;95.40;;;;;;4975638;28;20037;-91
2021/06/18 12:18:51;;;;;;;10.27;3.17;;;16.60;95.60;;;;;;4978263;28;20034;-93
2021/06/18 12:21:27;;;;;;;9.20;3.10;;;16.60;95.80;;;;;;4978101;28;20034;-91
2021/06/18 12:24:05;;;;;;;12.30;3.50;;;16.50;96.00;;;;;;4979442;28;20092;-92
2021/06/18 12:26:32;;;;;;;8.63;3.40;;;16.40;96.10;;;;;;4975471;28;20030;-92
2021/06/18 12:29:00;;;;;;;10.32;3.22;;;16.30;96.40;;;;;;4977986;28;20034;-90
2021/06/18 12:31:26;;;;;;;13.05;3.55;;;16.20;96.60;;;;;;4978720;28;20053;-92
2021/06/18 12:33:52;;;;;;;10.52;3.83;;;16.20;97.20;;;;;;4979820;28;20022;-92
2021/06/18 12:36:20;;;;;;;12.15;3.47;;;16.10;97.20;;;;;;4979706;28;20054;-92
2021/06/18 12:38:47;;;;;;;8.23;3.70;;;16.00;97.50;;;;;;4979516;28;20022;-91
2021/06/18 12:41:29;;;;;;;8.45;3.22;;;15.90;97.90;;;;;;4979136;28;20042;-93
2021/06/18 12:44:03;;;;;;;7.80;3.40;;;15.80;98.30;;;;;;4979498;28;20034;-91
2021/06/18 12:46:29;;;;;;;7.40;3.80;;;15.70;98.60;;;;;;4978970;28;20069;-92
2021/06/18 12:49:09;;;;;;;8.60;3.75;;;15.70;99.00;;;;;;4979850;28;20100;-93
2021/06/18 12:51:36;;;;;;;10.75;4.70;;;15.70;99.70;;;;;;4980599;28;20030;-92
2021/06/18 12:54:08;;;;;;;7.30;3.92;;;15.80;99.70;;;;;;4979661;28;20053;-93
2021/06/18 12:56:45;;;;;;;8.00;4.28;;;15.80;99.90;;;;;;4980372;28;20085;-92
2021/06/18 12:59:17;;;;;;;4.60;3.53;;;15.80;99.90;;;;;;4978892;28;20029;-92
2021/06/18 13:01:44;;;;;;;12.20;4.32;;;15.80;99.90;;;;;;4972977;28;20034;-93
2021/06/18 13:04:31;;;;;;;11.10;5.75;;;15.90;99.90;;;;;;4981037;28;20124;-92
2021/06/18 13:06:57;;;;;;;14.93;4.80;;;15.80;99.90;;;;;;4968676;28;20027;-92
2021/06/18 13:09:35;;;;;;;12.00;4.88;;;15.80;99.90;;;;;;4980495;28;20053;-91
2021/06/18 13:12:03;;;;;;;12.07;4.13;;;15.80;99.90;;;;;;4986513;28;20038;-91